createdAt,value
2019-01-02T00:02:04.127Z,101588.19
2019-01-02T00:04:35.015Z,101592.03
2019-01-02T00:07:05.932Z,101587.31
2019-01-02T00:09:37.228Z,101604.00
2019-01-02T00:12:09.135Z,101613.34
2019-01-02T00:14:40.395Z,101618.95
2019-01-02T00:17:11.643Z,101621.05
2019-01-02T00:19:42.535Z,101621.48
2019-01-02T00:22:13.452Z,101621.48
2019-01-02T00:24:44.413Z,101627.49
2019-01-02T00:27:15.423Z,101621.95
2019-01-02T00:29:46.590Z,101629.59
2019-01-02T00:32:17.812Z,101616.77
2019-01-02T00:34:48.708Z,101616.80
2019-01-02T00:37:19.647Z,101608.20
2019-01-02T00:39:50.672Z,101605.23
2019-01-02T00:42:21.680Z,101606.95
2019-01-02T00:44:52.723Z,101596.34
2019-01-02T00:47:24.012Z,101599.69
2019-01-02T00:49:55.397Z,101601.92
2019-01-02T00:52:26.767Z,101620.28
2019-01-02T00:54:57.987Z,101624.18
2019-01-02T00:57:29.177Z,101624.58
2019-01-02T01:00:00.517Z,101628.38
2019-01-02T01:02:32.129Z,101631.39
2019-01-02T01:05:03.123Z,101634.80
2019-01-02T01:07:34.743Z,101636.05
2019-01-02T01:10:06.985Z,101644.17
2019-01-02T01:12:38.283Z,101639.02
2019-01-02T01:15:09.794Z,101648.48
2019-01-02T01:17:41.187Z,101650.17
2019-01-02T01:20:13.835Z,101670.69
2019-01-02T01:22:45.188Z,101673.27
2019-01-02T01:25:16.191Z,101667.71
2019-01-02T01:27:47.126Z,101675.83
2019-01-02T01:30:18.516Z,101683.50
2019-01-02T01:32:49.754Z,101685.68
2019-01-02T01:35:21.009Z,101679.27
2019-01-02T01:37:55.292Z,101683.98
2019-01-02T01:40:26.356Z,101689.53
2019-01-02T01:42:57.640Z,101695.11
2019-01-02T01:45:28.815Z,101701.95
2019-01-02T01:47:59.784Z,101708.79
2019-01-02T01:50:31.049Z,101710.07
2019-01-02T01:53:02.158Z,101715.63
2019-01-02T01:55:33.116Z,101712.66
2019-01-02T01:58:04.502Z,101722.48
2019-01-02T02:00:35.537Z,101723.74
2019-01-02T02:03:06.420Z,101728.04
2019-01-02T02:05:37.830Z,101732.30
2019-01-02T02:08:08.771Z,101741.27
2019-01-02T02:10:39.680Z,101738.72
2019-01-02T02:13:10.848Z,101743.41
2019-01-02T02:15:41.852Z,101751.09
2019-01-02T02:18:12.872Z,101753.64
2019-01-02T02:20:44.397Z,101754.52
2019-01-02T02:23:15.306Z,101757.92
2019-01-02T02:25:46.703Z,101759.20
2019-01-02T02:28:18.027Z,101766.03
2019-01-02T02:30:48.904Z,101775.00
2019-01-02T02:33:20.499Z,101772.01
2019-01-02T02:35:51.774Z,101781.84
2019-01-02T02:38:23.063Z,101775.02
2019-01-02T02:40:54.362Z,101786.95
2019-01-02T02:43:26.164Z,101786.52
2019-01-02T02:45:57.064Z,101779.70
2019-01-02T02:48:28.263Z,101783.95
2019-01-02T02:50:59.651Z,101781.40
2019-01-02T02:53:30.894Z,101782.70
2019-01-02T02:56:02.348Z,101791.66
2019-01-02T02:58:33.780Z,101801.48
2019-01-02T03:01:05.327Z,101802.35
2019-01-02T03:03:36.591Z,101801.92
2019-01-02T03:06:07.540Z,101808.33
2019-01-02T03:08:38.532Z,101810.42
2019-01-02T03:11:09.450Z,101815.17
2019-01-02T03:13:40.768Z,101819.83
2019-01-02T03:16:11.926Z,101817.73
2019-01-02T03:18:43.116Z,101824.98
2019-01-02T03:21:14.380Z,101832.23
2019-01-02T03:23:45.260Z,101834.39
2019-01-02T03:26:16.233Z,101838.20
2019-01-02T03:28:47.197Z,101844.61
2019-01-02T03:31:18.488Z,101847.17
2019-01-02T03:33:49.653Z,101855.70
2019-01-02T03:36:20.656Z,101852.70
2019-01-02T03:38:51.565Z,101853.14
2019-01-02T03:41:22.515Z,101854.42
2019-01-02T03:43:53.484Z,101857.42
2019-01-02T03:46:24.365Z,101862.52
2019-01-02T03:48:55.237Z,101870.20
2019-01-02T03:51:26.490Z,101871.08
2019-01-02T03:53:57.404Z,101857.42
2019-01-02T03:56:28.388Z,101868.11
2019-01-02T03:58:59.336Z,101874.08
2019-01-02T04:01:30.272Z,101872.39
2019-01-02T04:04:01.288Z,101879.64
2019-01-02T04:06:32.599Z,101882.16
2019-01-02T04:09:03.886Z,101884.30
2019-01-02T04:11:34.776Z,101885.13
2019-01-02T04:14:05.675Z,101887.25
2019-01-02T04:16:36.619Z,101886.84
2019-01-02T04:19:07.538Z,101878.72
2019-01-02T04:21:38.422Z,101883.44
2019-01-02T04:24:09.312Z,101880.84
2019-01-02T04:26:40.498Z,101888.48
2019-01-02T04:29:11.433Z,101882.05
2019-01-02T04:31:42.335Z,101887.24
2019-01-02T04:34:13.216Z,101892.32
2019-01-02T04:36:44.443Z,101894.44
2019-01-02T04:39:15.341Z,101901.28
2019-01-02T04:41:46.255Z,101908.11
2019-01-02T04:44:17.147Z,101904.72
2019-01-02T04:46:48.063Z,101900.83
2019-01-02T04:49:19.222Z,101905.55
2019-01-02T04:51:50.101Z,101916.20
2019-01-02T04:54:21.026Z,101902.12
2019-01-02T04:56:51.953Z,101901.72
2019-01-02T04:59:22.873Z,101909.36
2019-01-02T05:01:53.805Z,101908.12
2019-01-02T05:04:24.730Z,101904.33
2019-01-02T05:06:55.600Z,101910.25
2019-01-02T05:09:26.691Z,101915.35
2019-01-02T05:11:57.588Z,101911.47
2019-01-02T05:14:28.755Z,101910.61
2019-01-02T05:16:59.668Z,101913.58
2019-01-02T05:19:30.634Z,101917.42
2019-01-02T05:22:01.604Z,101919.53
2019-01-02T05:24:32.548Z,101912.73
2019-01-02T05:27:03.407Z,101920.86
2019-01-02T05:29:34.318Z,101925.55
2019-01-02T05:32:05.542Z,101927.64
2019-01-02T05:34:36.523Z,101939.23
2019-01-02T05:37:07.430Z,101942.69
2019-01-02T05:39:38.673Z,101940.99
2019-01-02T05:42:09.633Z,101953.84
2019-01-02T05:44:40.856Z,101961.07
2019-01-02T05:47:11.821Z,101961.03
2019-01-02T05:49:42.964Z,101960.24
2019-01-02T05:52:13.947Z,101966.64
2019-01-02T05:54:44.952Z,101970.94
2019-01-02T05:57:15.835Z,101970.89
2019-01-02T05:59:46.737Z,101972.23
2019-01-02T06:02:17.653Z,101981.58
2019-01-02T06:04:48.586Z,101991.39
2019-01-02T06:07:19.498Z,101990.17
2019-01-02T06:09:50.381Z,101988.42
2019-01-02T06:12:21.271Z,101995.34
2019-01-02T06:14:52.175Z,102000.02
2019-01-02T06:17:23.091Z,102003.05
2019-01-02T06:19:53.977Z,102005.20
2019-01-02T06:22:25.499Z,102009.44
2019-01-02T06:24:56.404Z,102008.18
2019-01-02T06:27:27.309Z,102010.72
2019-01-02T06:29:58.234Z,102019.18
2019-01-02T06:32:29.440Z,102014.95
2019-01-02T06:35:00.618Z,102016.16
2019-01-02T06:37:31.540Z,102023.97
2019-01-02T06:40:02.406Z,102021.75
2019-01-02T06:42:33.363Z,102032.06
2019-01-02T06:45:04.564Z,102033.28
2019-01-02T06:47:35.534Z,102045.69
2019-01-02T06:50:09.736Z,102053.39
2019-01-02T06:52:40.948Z,102052.98
2019-01-02T06:55:11.872Z,102060.17
2019-01-02T06:57:42.847Z,102060.62
2019-01-02T07:00:22.097Z,102079.38
2019-01-02T07:02:53.303Z,102080.13
2019-01-02T07:05:24.229Z,102088.26
2019-01-02T07:07:55.158Z,102095.09
2019-01-02T07:10:26.026Z,102095.92
2019-01-02T07:12:56.970Z,102099.30
2019-01-02T07:15:27.871Z,102100.94
2019-01-02T07:17:58.880Z,102104.41
2019-01-02T07:20:29.772Z,102110.39
2019-01-02T07:23:00.783Z,102115.98
2019-01-02T07:25:32.036Z,102119.72
2019-01-02T07:28:03.194Z,102125.77
2019-01-02T07:30:34.157Z,102127.04
2019-01-02T07:33:05.461Z,102135.09
2019-01-02T07:36:16.872Z,102131.71
2019-01-02T07:39:26.600Z,102140.75
2019-01-02T07:42:46.281Z,102155.23
2019-01-02T07:45:50.204Z,102157.41
2019-01-02T07:49:39.113Z,102165.82
2019-01-02T07:53:06.838Z,102164.24
2019-01-02T07:56:29.570Z,102173.23
2019-01-02T07:59:30.020Z,102173.44
2019-01-02T08:02:43.752Z,102184.45
2019-01-02T08:05:53.039Z,102180.86
2019-01-02T08:09:37.553Z,102187.89
2019-01-02T08:12:58.371Z,102190.52
2019-01-02T08:16:31.575Z,102187.95
2019-01-02T08:19:53.479Z,102195.19
2019-01-02T08:23:25.298Z,102196.09
2019-01-02T08:26:36.780Z,102209.83
2019-01-02T08:30:22.726Z,102213.15
2019-01-02T08:34:09.443Z,102215.35
2019-01-02T08:37:30.823Z,102228.92
2019-01-02T08:40:44.625Z,102235.16
2019-01-02T08:43:57.611Z,102245.14
2019-01-02T08:47:33.052Z,102255.00
2019-01-02T08:51:02.277Z,102252.14
2019-01-02T08:54:05.402Z,102267.44
2019-01-02T08:57:41.114Z,102265.48
2019-01-02T09:01:05.067Z,102269.16
2019-01-02T09:04:43.040Z,102275.72
2019-01-02T09:07:58.769Z,102283.98
2019-01-02T09:11:34.861Z,102288.20
2019-01-02T09:15:14.955Z,102295.25
2019-01-02T09:18:50.600Z,102314.41
2019-01-02T09:22:34.966Z,102315.09
2019-01-02T09:25:57.363Z,102324.16
2019-01-02T09:29:55.069Z,102328.47
2019-01-02T09:33:52.155Z,102331.47
2019-01-02T09:37:47.146Z,102338.78
2019-01-02T09:41:32.013Z,102348.28
2019-01-02T09:44:57.655Z,102354.33
2019-01-02T09:48:36.221Z,102357.31
2019-01-02T09:52:01.423Z,102357.30
2019-01-02T09:55:43.098Z,102358.61
2019-01-02T09:59:42.536Z,102359.88
2019-01-02T10:03:14.614Z,102364.17
2019-01-02T10:06:25.471Z,102372.75
2019-01-02T10:10:05.505Z,102377.91
2019-01-02T10:13:54.242Z,102381.77
2019-01-02T10:17:33.051Z,102388.63
2019-01-02T10:21:12.761Z,102391.19
2019-01-02T10:24:22.337Z,102398.47
2019-01-02T10:27:46.591Z,102398.95
2019-01-02T10:31:16.334Z,102401.07
2019-01-02T10:34:32.340Z,102409.16
2019-01-02T10:37:51.683Z,102394.59
2019-01-02T10:41:28.084Z,102410.47
2019-01-02T10:44:38.766Z,102407.90
2019-01-02T10:47:55.892Z,102409.20
2019-01-02T10:50:58.154Z,102407.89
2019-01-02T10:54:44.565Z,102410.88
2019-01-02T10:58:08.881Z,102419.00
2019-01-02T11:01:13.083Z,102426.27
2019-01-02T11:04:35.670Z,102420.28
2019-01-02T11:07:45.920Z,102423.30
2019-01-02T11:11:06.825Z,102413.45
2019-01-02T11:14:45.604Z,102416.43
2019-01-02T11:18:28.562Z,102418.56
2019-01-02T11:21:55.905Z,102429.25
2019-01-02T11:25:18.516Z,102427.56
2019-01-02T11:28:55.528Z,102428.84
2019-01-02T11:32:47.106Z,102443.43
2019-01-02T11:36:42.488Z,102442.59
2019-01-02T11:40:04.093Z,102444.62
2019-01-02T11:43:44.087Z,102456.69
2019-01-02T11:46:15.007Z,102440.81
2019-01-02T11:48:45.927Z,102451.94
2019-01-02T11:51:17.128Z,102447.20
2019-01-02T11:53:48.291Z,102448.48
2019-01-02T11:56:19.487Z,102448.88
2019-01-02T11:58:50.369Z,102454.06
2019-01-02T12:01:21.245Z,102455.75
2019-01-02T12:03:52.539Z,102460.44
2019-01-02T12:06:23.438Z,102454.51
2019-01-02T12:08:54.448Z,102456.63
2019-01-02T12:11:25.614Z,102463.00
2019-01-02T12:13:56.545Z,102458.32
2019-01-02T12:16:27.438Z,102451.94
2019-01-02T12:18:58.321Z,102464.30
2019-01-02T12:21:29.239Z,102464.75
2019-01-02T12:24:00.534Z,102463.45
2019-01-02T12:26:31.490Z,102473.36
2019-01-02T12:29:02.392Z,102467.36
2019-01-02T12:31:33.263Z,102464.75
2019-01-02T12:34:05.043Z,102466.09
2019-01-02T12:36:35.923Z,102466.58
2019-01-02T12:39:08.723Z,102476.86
2019-01-02T12:41:39.950Z,102484.08
2019-01-02T12:44:10.834Z,102479.73
2019-01-02T12:46:41.761Z,102489.62
2019-01-02T12:49:12.633Z,102499.12
2019-01-02T12:51:43.504Z,102492.58
2019-01-02T12:54:14.392Z,102506.64
2019-01-02T12:56:45.350Z,102502.84
2019-01-02T12:59:26.809Z,102511.33
2019-01-02T13:02:55.523Z,102497.56
2019-01-02T13:06:03.965Z,102498.33
2019-01-02T13:09:27.273Z,102506.11
2019-01-02T13:12:42.848Z,102514.27
2019-01-02T13:15:56.838Z,102517.69
2019-01-02T13:19:15.394Z,102525.80
2019-01-02T13:22:49.349Z,102523.70
2019-01-02T13:25:41.845Z,102524.98
2019-01-02T13:29:04.833Z,102533.16
2019-01-02T13:32:26.671Z,102528.94
2019-01-02T13:35:57.313Z,102528.94
2019-01-02T13:38:56.277Z,102534.06
2019-01-02T13:42:10.451Z,102543.47
2019-01-02T13:45:29.675Z,102550.69
2019-01-02T13:48:44.948Z,102543.84
2019-01-02T13:51:34.230Z,102558.39
2019-01-02T13:54:05.326Z,102555.74
2019-01-02T13:56:38.631Z,102558.29
2019-01-02T13:59:09.870Z,102562.91
2019-01-02T14:01:41.138Z,102566.73
2019-01-02T14:04:12.619Z,102569.58
2019-01-02T14:06:43.535Z,102572.70
2019-01-02T14:09:14.515Z,102570.52
2019-01-02T14:11:45.401Z,102583.22
2019-01-02T14:14:16.354Z,102569.55
2019-01-02T14:16:47.853Z,102571.77
2019-01-02T14:19:18.740Z,102579.05
2019-01-02T14:21:49.737Z,102580.72
2019-01-02T14:24:20.606Z,102580.22
2019-01-02T14:26:51.639Z,102581.93
2019-01-02T14:29:22.620Z,102585.31
2019-01-02T14:31:53.794Z,102586.27
2019-01-02T14:34:24.733Z,102591.35
2019-01-02T14:36:55.692Z,102588.21
2019-01-02T14:39:26.666Z,102590.98
2019-01-02T14:41:57.557Z,102599.50
2019-01-02T14:44:28.473Z,102594.70
2019-01-02T14:46:59.463Z,102602.87
2019-01-02T14:49:30.347Z,102601.56
2019-01-02T14:52:01.220Z,102605.34
2019-01-02T14:54:32.147Z,102606.33
2019-01-02T14:57:03.041Z,102614.42
2019-01-02T14:59:35.117Z,102612.74
2019-01-02T15:02:05.983Z,102625.18
2019-01-02T15:04:36.887Z,102625.88
2019-01-02T15:07:07.801Z,102632.22
2019-01-02T15:09:38.962Z,102631.86
2019-01-02T15:12:09.870Z,102633.36
2019-01-02T15:14:40.754Z,102641.03
2019-01-02T15:17:11.685Z,102644.45
2019-01-02T15:19:42.680Z,102652.36
2019-01-02T15:22:13.570Z,102659.56
2019-01-02T15:24:49.436Z,102662.50
2019-01-02T15:27:17.085Z,102665.72
2019-01-02T15:29:48.015Z,102670.84
2019-01-02T15:32:18.923Z,102674.50
2019-01-02T15:34:49.890Z,102676.03
2019-01-02T15:37:20.800Z,102679.66
2019-01-02T15:39:51.783Z,102677.81
2019-01-02T15:42:22.767Z,102676.00
2019-01-02T15:44:53.951Z,102679.67
2019-01-02T15:47:24.861Z,102682.59
2019-01-02T15:49:55.774Z,102691.01
2019-01-02T15:52:26.678Z,102684.86
2019-01-02T15:54:57.591Z,102692.47
2019-01-02T15:57:28.451Z,102694.20
2019-01-02T15:59:59.342Z,102704.34
2019-01-02T16:02:30.293Z,102705.44
2019-01-02T16:05:01.531Z,102709.34
2019-01-02T16:07:32.903Z,102710.50
2019-01-02T16:10:04.253Z,102713.69
2019-01-02T16:12:35.145Z,102728.08
2019-01-02T16:15:06.838Z,102720.06
2019-01-02T16:17:39.452Z,102725.35
2019-01-02T16:20:12.377Z,102729.52
2019-01-02T16:22:43.325Z,102738.02
2019-01-02T16:25:14.206Z,102731.11
2019-01-02T16:27:45.190Z,102738.96
2019-01-02T16:30:16.119Z,102740.20
2019-01-02T16:32:47.056Z,102748.37
2019-01-02T16:35:17.968Z,102750.16
2019-01-02T16:37:48.885Z,102753.75
2019-01-02T16:40:19.807Z,102760.09
2019-01-02T16:42:51.042Z,102765.34
2019-01-02T16:45:22.255Z,102766.32
2019-01-02T16:47:53.128Z,102768.61
2019-01-02T16:50:23.995Z,102775.95
2019-01-02T16:52:55.204Z,102779.66
2019-01-02T16:55:26.111Z,102774.18
2019-01-02T16:57:57.085Z,102780.97
2019-01-02T17:00:28.021Z,102781.10
2019-01-02T17:02:58.933Z,102796.24
2019-01-02T17:05:29.942Z,102795.61
2019-01-02T17:08:01.246Z,102794.14
2019-01-02T17:10:32.232Z,102795.58
2019-01-02T17:13:03.139Z,102797.64
2019-01-02T17:15:34.013Z,102800.08
2019-01-02T17:18:04.943Z,102799.13
2019-01-02T17:20:35.858Z,102798.36
2019-01-02T17:23:07.105Z,102800.45
2019-01-02T17:25:38.097Z,102796.36
2019-01-02T17:28:09.064Z,102806.91
2019-01-02T17:30:40.068Z,102807.76
2019-01-02T17:33:10.989Z,102817.02
2019-01-02T17:35:41.889Z,102804.92
2019-01-02T17:38:12.800Z,102813.19
2019-01-02T17:40:43.670Z,102814.72
2019-01-02T17:43:14.593Z,102819.30
2019-01-02T17:45:45.580Z,102817.34
2019-01-02T17:48:16.874Z,102826.89
2019-01-02T17:50:47.793Z,102826.91
2019-01-02T17:53:19.015Z,102825.59
2019-01-02T17:55:49.927Z,102823.83
2019-01-02T17:58:21.166Z,102831.66
2019-01-02T18:00:52.146Z,102832.37
2019-01-02T18:03:23.047Z,102836.70
2019-01-02T18:05:53.953Z,102834.63
2019-01-02T18:08:24.967Z,102837.52
2019-01-02T18:10:55.837Z,102834.58
2019-01-02T18:13:26.715Z,102843.52
2019-01-02T18:15:57.727Z,102844.17
2019-01-02T18:18:28.599Z,102842.94
2019-01-02T18:20:59.467Z,102842.86
2019-01-02T18:23:30.402Z,102844.36
2019-01-02T18:26:01.275Z,102851.02
2019-01-02T18:28:32.447Z,102850.25
2019-01-02T18:31:03.651Z,102861.67
2019-01-02T18:33:34.524Z,102855.67
2019-01-02T18:36:05.444Z,102862.75
2019-01-02T18:38:36.370Z,102865.50
2019-01-02T18:41:07.253Z,102870.37
2019-01-02T18:43:38.182Z,102867.81
2019-01-02T18:46:09.082Z,102865.84
2019-01-02T18:48:40.361Z,102867.97
2019-01-02T18:51:11.227Z,102877.26
2019-01-02T18:53:42.092Z,102879.69
2019-01-02T18:56:12.991Z,102883.87
2019-01-02T18:58:44.288Z,102877.56
2019-01-02T19:01:18.343Z,102879.95
2019-01-02T19:03:49.334Z,102888.77
2019-01-02T19:06:20.635Z,102893.16
2019-01-02T19:08:52.178Z,102895.72
2019-01-02T19:11:23.142Z,102890.44
2019-01-02T19:13:54.076Z,102901.66
2019-01-02T19:16:24.973Z,102898.25
2019-01-02T19:18:55.881Z,102896.42
2019-01-02T19:21:26.789Z,102902.39
2019-01-02T19:23:57.654Z,102899.39
2019-01-02T19:26:28.562Z,102901.94
2019-01-02T19:28:59.734Z,102903.17
2019-01-02T19:31:31.258Z,102903.83
2019-01-02T19:34:02.160Z,102911.95
2019-01-02T19:36:34.969Z,102909.77
2019-01-02T19:39:08.464Z,102912.03
2019-01-02T19:41:39.415Z,102909.84
2019-01-02T19:44:10.430Z,102907.21
2019-01-02T19:46:41.821Z,102911.91
2019-01-02T19:49:13.056Z,102908.77
2019-01-02T19:51:43.991Z,102916.14
2019-01-02T19:54:15.676Z,102908.98
2019-01-02T19:56:47.352Z,102909.84
2019-01-02T19:59:19.419Z,102918.91
2019-01-02T20:01:51.177Z,102916.52
2019-01-02T20:04:22.635Z,102917.87
2019-01-02T20:06:54.062Z,102917.84
2019-01-02T20:09:25.715Z,102916.34
2019-01-02T20:11:58.284Z,102918.04
2019-01-02T20:14:30.011Z,102919.98
2019-01-02T20:17:01.402Z,102923.64
2019-01-02T20:19:33.083Z,102925.87
2019-01-02T20:22:04.815Z,102924.47
2019-01-02T20:24:36.759Z,102927.48
2019-01-02T20:27:08.693Z,102926.09
2019-01-02T20:29:40.961Z,102938.36
2019-01-02T20:32:12.839Z,102932.32
2019-01-02T20:34:44.338Z,102931.27
2019-01-02T20:37:16.169Z,102924.98
2019-01-02T20:39:48.173Z,102925.38
2019-01-02T20:42:21.107Z,102925.52
2019-01-02T20:44:52.780Z,102927.14
2019-01-02T20:47:24.690Z,102926.00
2019-01-02T20:49:56.512Z,102925.72
2019-01-02T20:52:28.479Z,102921.56
2019-01-02T20:54:59.988Z,102925.08
2019-01-02T20:57:31.583Z,102927.91
2019-01-02T21:00:02.878Z,102921.44
2019-01-02T21:02:33.981Z,102917.86
2019-01-02T21:05:05.129Z,102920.64
2019-01-02T21:07:36.432Z,102918.45
2019-01-02T21:10:09.484Z,102912.99
2019-01-02T21:12:40.381Z,102914.94
2019-01-02T21:15:11.431Z,102915.26
2019-01-02T21:17:42.462Z,102917.77
2019-01-02T21:20:13.345Z,102917.36
2019-01-02T21:22:44.267Z,102921.27
2019-01-02T21:25:15.319Z,102922.58
2019-01-02T21:27:46.227Z,102925.28
2019-01-02T21:30:17.120Z,102915.98
2019-01-02T21:32:48.328Z,102923.16
2019-01-02T21:35:19.530Z,102923.05
2019-01-02T21:37:50.443Z,102927.58
2019-01-02T21:40:21.470Z,102929.09
2019-01-02T21:42:52.344Z,102932.77
2019-01-02T21:45:23.231Z,102928.09
2019-01-02T21:47:54.184Z,102927.89
2019-01-02T21:50:25.108Z,102922.14
2019-01-02T21:52:56.398Z,102921.86
2019-01-02T21:55:27.360Z,102915.78
2019-01-02T21:57:58.266Z,102925.20
2019-01-02T22:00:29.238Z,102916.02
2019-01-02T22:03:00.215Z,102918.03
2019-01-02T22:05:31.089Z,102924.41
2019-01-02T22:08:02.290Z,102921.52
2019-01-02T22:10:33.317Z,102912.78
2019-01-02T22:13:04.589Z,102916.99
2019-01-02T22:15:35.760Z,102916.31
2019-01-02T22:18:06.738Z,102911.05
2019-01-02T22:20:37.661Z,102906.94
2019-01-02T22:23:08.576Z,102906.95
2019-01-02T22:25:39.552Z,102912.16
2019-01-02T22:28:10.756Z,102913.13
2019-01-02T22:30:41.661Z,102912.55
2019-01-02T22:33:12.965Z,102911.06
2019-01-02T22:35:43.829Z,102909.32
2019-01-02T22:38:14.741Z,102909.32
2019-01-02T22:40:46.001Z,102912.09
2019-01-02T22:43:16.893Z,102916.27
2019-01-02T22:45:48.136Z,102911.92
2019-01-02T22:48:19.135Z,102921.09
2019-01-02T22:50:50.045Z,102917.05
2019-01-02T22:53:21.047Z,102912.19
2019-01-02T22:55:52.123Z,102908.26
2019-01-02T22:58:23.054Z,102915.36
2019-01-02T23:01:19.415Z,102914.89
2019-01-02T23:03:59.504Z,102915.41
2019-01-02T23:06:48.037Z,102908.05
2019-01-02T23:09:36.285Z,102912.28
2019-01-02T23:12:24.702Z,102916.58
2019-01-02T23:15:32.780Z,102916.05
2019-01-02T23:18:25.263Z,102917.38
2019-01-02T23:21:13.596Z,102920.81
2019-01-02T23:24:03.364Z,102926.64
2019-01-02T23:26:52.312Z,102930.28
2019-01-02T23:29:44.861Z,102931.08
2019-01-02T23:32:37.892Z,102931.37
2019-01-02T23:35:42.377Z,102934.72
2019-01-02T23:38:35.087Z,102941.93
2019-01-02T23:41:34.005Z,102941.25
2019-01-02T23:44:39.044Z,102944.83
2019-01-02T23:47:29.140Z,102945.20
2019-01-02T23:50:19.193Z,102955.00
2019-01-02T23:53:21.146Z,102951.39
2019-01-02T23:56:19.701Z,102956.36
2019-01-02T23:59:08.160Z,102955.73
